Etusivu
METAR-TAF:

METAR-TAF

Lentoasemat :

Kristiansandin lentoasema

Kristiansand, Norja

Leveyspiiri: 58-12N, Pituuspiiri: 008-05E, korkeus merenpinnasta: 1 m

Tämänhetkinen sää

Tämä raportti tehtiin 27 minuuttia sitten, kello 11.50 UTC
Tuuli 9 kn idästä, vaihdellen idän/koillisen ja kaakon välillä
Lämpötila 6°C
Kosteus 45%
Ilmanpaine 1030 hPa
Näkyvyys 10 km tai enemmän
ei pilviä alle 1500 m:ssä eikä cumulonimbus-pilviä

METAR: ENCN 301150Z 09009KT 060V140 CAVOK 06/M05 Q1030

Aika: 14:17 (12:17 UTC)

Sääennuste

Tämä raportti tehtiin 1 tunti ja 17 minuuttia sitten, kello 11.00 UTC
Ennuste voimassa 30. päivästä klo 12 UTC - 30. päivään klo 21 UTC
Tuuli 10 kn idästä
Näkyvyys 10 km tai enemmän
ei pilviä alle 1500 m:ssä eikä cumulonimbus-pilviä
Tulossa
30. päivästä klo 14 UTC - 30. päivään klo 16 UTC
Tuuli 5 kn etelästä/lounaasta

TAF: ENCN 301100Z 3012/3021 09010KT CAVOK BECMG 3014/3016 20005KT

Säähavainnot ja -ennusteet yli 4000 lentoasemalta (METAR- ja TAF-raportit).

Käytössä olevat sääasemat on merkitty karttaan keltaisilla ja punaisilla pisteillä.

Aseta hiiri pisteen päälle nähdäksesi sääaseman nimen.

Klikkaa sitten nähdäksesi säähavainnot ja -ennusteet.

Kartan vaihtaminen: klikkaa mustalla rastilla varustettuja vihreitä pisteitä, niin voit zoomata sisään; viivalla varustettua vihreää pistettä, niin voit zoomata ulos tai vihreitä nuolia, niin pääset viereisille kartoille.


METAR-TAF: